sensor_id;sensor_type;location;lat;lon;timestamp;P1;durP1;ratioP1;P2;durP2;ratioP2
323;SDS011;149;51.094;17.002;2022-12-07T00:01:45;11.65;;;9.13;;
323;SDS011;149;51.094;17.002;2022-12-07T00:04:27;11.57;;;9.70;;
323;SDS011;149;51.094;17.002;2022-12-07T00:06:54;9.85;;;8.52;;
323;SDS011;149;51.094;17.002;2022-12-07T00:09:22;10.93;;;8.23;;
323;SDS011;149;51.094;17.002;2022-12-07T00:11:50;10.60;;;8.27;;
323;SDS011;149;51.094;17.002;2022-12-07T00:14:20;8.57;;;7.22;;
323;SDS011;149;51.094;17.002;2022-12-07T00:16:50;9.02;;;6.70;;
323;SDS011;149;51.094;17.002;2022-12-07T00:19:21;8.55;;;7.30;;
323;SDS011;149;51.094;17.002;2022-12-07T00:21:52;7.60;;;6.80;;
323;SDS011;149;51.094;17.002;2022-12-07T00:24:43;7.80;;;6.28;;
323;SDS011;149;51.094;17.002;2022-12-07T00:27:19;12.32;;;6.70;;
323;SDS011;149;51.094;17.002;2022-12-07T00:29:49;7.82;;;6.03;;
323;SDS011;149;51.094;17.002;2022-12-07T00:32:20;6.18;;;5.57;;
323;SDS011;149;51.094;17.002;2022-12-07T00:34:54;8.93;;;6.85;;
323;SDS011;149;51.094;17.002;2022-12-07T00:37:50;7.90;;;5.93;;
323;SDS011;149;51.094;17.002;2022-12-07T00:40:26;5.97;;;4.65;;
323;SDS011;149;51.094;17.002;2022-12-07T00:42:57;8.40;;;5.85;;
323;SDS011;149;51.094;17.002;2022-12-07T00:45:28;7.07;;;6.32;;
323;SDS011;149;51.094;17.002;2022-12-07T00:47:56;6.72;;;5.32;;
323;SDS011;149;51.094;17.002;2022-12-07T00:50:23;5.80;;;4.97;;
323;SDS011;149;51.094;17.002;2022-12-07T00:52:50;4.70;;;4.10;;
323;SDS011;149;51.094;17.002;2022-12-07T00:55:17;6.65;;;4.38;;
323;SDS011;149;51.094;17.002;2022-12-07T00:57:44;6.35;;;5.30;;
323;SDS011;149;51.094;17.002;2022-12-07T01:00:11;6.38;;;4.97;;
323;SDS011;149;51.094;17.002;2022-12-07T01:02:38;4.97;;;3.83;;
323;SDS011;149;51.094;17.002;2022-12-07T01:05:06;6.18;;;3.47;;
323;SDS011;149;51.094;17.002;2022-12-07T01:07:33;4.72;;;3.90;;
323;SDS011;149;51.094;17.002;2022-12-07T01:10:00;3.92;;;3.53;;
323;SDS011;149;51.094;17.002;2022-12-07T01:12:27;4.43;;;4.03;;
323;SDS011;149;51.094;17.002;2022-12-07T01:14:54;4.28;;;3.88;;
323;SDS011;149;51.094;17.002;2022-12-07T01:17:21;5.80;;;4.10;;
323;SDS011;149;51.094;17.002;2022-12-07T01:19:49;3.65;;;3.35;;
323;SDS011;149;51.094;17.002;2022-12-07T01:22:15;4.60;;;4.20;;
323;SDS011;149;51.094;17.002;2022-12-07T01:24:43;5.47;;;4.30;;
323;SDS011;149;51.094;17.002;2022-12-07T01:27:10;19.90;;;5.40;;
323;SDS011;149;51.094;17.002;2022-12-07T01:29:37;5.28;;;4.28;;
323;SDS011;149;51.094;17.002;2022-12-07T01:32:04;4.40;;;4.00;;
323;SDS011;149;51.094;17.002;2022-12-07T01:34:31;3.80;;;3.40;;
323;SDS011;149;51.094;17.002;2022-12-07T01:36:58;4.70;;;3.42;;
323;SDS011;149;51.094;17.002;2022-12-07T01:39:25;3.95;;;3.65;;
323;SDS011;149;51.094;17.002;2022-12-07T01:41:53;5.90;;;4.05;;
323;SDS011;149;51.094;17.002;2022-12-07T01:44:24;3.60;;;3.30;;
323;SDS011;149;51.094;17.002;2022-12-07T01:47:00;3.40;;;3.10;;
323;SDS011;149;51.094;17.002;2022-12-07T01:54:57;3.95;;;2.85;;
323;SDS011;149;51.094;17.002;2022-12-07T01:57:28;5.18;;;3.13;;
323;SDS011;149;51.094;17.002;2022-12-07T01:59:57;5.60;;;4.25;;
323;SDS011;149;51.094;17.002;2022-12-07T02:02:27;3.83;;;3.35;;
323;SDS011;149;51.094;17.002;2022-12-07T02:05:09;3.08;;;2.75;;
323;SDS011;149;51.094;17.002;2022-12-07T02:07:37;3.40;;;3.10;;
323;SDS011;149;51.094;17.002;2022-12-07T02:10:16;4.55;;;3.33;;
323;SDS011;149;51.094;17.002;2022-12-07T02:12:46;2.70;;;2.47;;
323;SDS011;149;51.094;17.002;2022-12-07T02:15:15;3.35;;;2.83;;
323;SDS011;149;51.094;17.002;2022-12-07T02:21:15;2.42;;;2.08;;
323;SDS011;149;51.094;17.002;2022-12-07T02:26:02;5.47;;;2.47;;
323;SDS011;149;51.094;17.002;2022-12-07T02:31:27;3.78;;;2.40;;
323;SDS011;149;51.094;17.002;2022-12-07T02:34:02;2.92;;;2.42;;
323;SDS011;149;51.094;17.002;2022-12-07T02:36:52;2.85;;;2.65;;
323;SDS011;149;51.094;17.002;2022-12-07T02:39:32;3.15;;;2.60;;
323;SDS011;149;51.094;17.002;2022-12-07T02:42:07;2.88;;;2.58;;
323;SDS011;149;51.094;17.002;2022-12-07T02:44:45;2.38;;;2.17;;
323;SDS011;149;51.094;17.002;2022-12-07T02:47:14;4.20;;;3.08;;
323;SDS011;149;51.094;17.002;2022-12-07T02:49:44;2.60;;;2.40;;
323;SDS011;149;51.094;17.002;2022-12-07T02:52:12;2.88;;;2.30;;
323;SDS011;149;51.094;17.002;2022-12-07T02:54:39;2.72;;;2.53;;
323;SDS011;149;51.094;17.002;2022-12-07T02:59:44;2.67;;;2.35;;
323;SDS011;149;51.094;17.002;2022-12-07T03:05:09;3.28;;;2.97;;
323;SDS011;149;51.094;17.002;2022-12-07T03:13:07;3.30;;;3.00;;
323;SDS011;149;51.094;17.002;2022-12-07T03:15:46;3.30;;;2.92;;
323;SDS011;149;51.094;17.002;2022-12-07T03:18:19;3.75;;;3.17;;
323;SDS011;149;51.094;17.002;2022-12-07T03:20:49;2.40;;;2.20;;
323;SDS011;149;51.094;17.002;2022-12-07T03:23:21;3.92;;;3.58;;
323;SDS011;149;51.094;17.002;2022-12-07T03:25:53;4.13;;;3.33;;
323;SDS011;149;51.094;17.002;2022-12-07T03:28:26;3.80;;;3.50;;
323;SDS011;149;51.094;17.002;2022-12-07T03:31:17;4.32;;;3.90;;
323;SDS011;149;51.094;17.002;2022-12-07T03:33:54;4.00;;;3.60;;
323;SDS011;149;51.094;17.002;2022-12-07T03:39:24;3.53;;;3.20;;
323;SDS011;149;51.094;17.002;2022-12-07T03:42:07;4.63;;;4.00;;
323;SDS011;149;51.094;17.002;2022-12-07T03:44:36;3.47;;;3.28;;
323;SDS011;149;51.094;17.002;2022-12-07T03:49:59;3.80;;;3.30;;
323;SDS011;149;51.094;17.002;2022-12-07T03:52:44;5.05;;;4.03;;
323;SDS011;149;51.094;17.002;2022-12-07T03:55:20;3.67;;;3.38;;
323;SDS011;149;51.094;17.002;2022-12-07T03:57:58;3.30;;;3.00;;
323;SDS011;149;51.094;17.002;2022-12-07T04:00:29;3.85;;;3.45;;
323;SDS011;149;51.094;17.002;2022-12-07T04:02:56;5.13;;;4.20;;
323;SDS011;149;51.094;17.002;2022-12-07T04:05:23;4.22;;;3.78;;
323;SDS011;149;51.094;17.002;2022-12-07T04:07:51;4.60;;;3.75;;
323;SDS011;149;51.094;17.002;2022-12-07T04:10:18;4.57;;;3.70;;
323;SDS011;149;51.094;17.002;2022-12-07T04:12:45;2.38;;;2.17;;
323;SDS011;149;51.094;17.002;2022-12-07T04:15:12;3.15;;;2.70;;
323;SDS011;149;51.094;17.002;2022-12-07T04:17:46;3.60;;;3.30;;
323;SDS011;149;51.094;17.002;2022-12-07T04:20:13;3.20;;;2.90;;
323;SDS011;149;51.094;17.002;2022-12-07T04:22:40;3.30;;;2.75;;
323;SDS011;149;51.094;17.002;2022-12-07T04:25:09;3.75;;;3.08;;
323;SDS011;149;51.094;17.002;2022-12-07T04:27:40;3.00;;;2.80;;
323;SDS011;149;51.094;17.002;2022-12-07T04:30:07;3.55;;;2.80;;
323;SDS011;149;51.094;17.002;2022-12-07T04:32:35;3.08;;;2.88;;
323;SDS011;149;51.094;17.002;2022-12-07T04:35:02;6.75;;;3.35;;
323;SDS011;149;51.094;17.002;2022-12-07T04:37:33;3.22;;;2.90;;
323;SDS011;149;51.094;17.002;2022-12-07T04:40:01;3.58;;;3.28;;
323;SDS011;149;51.094;17.002;2022-12-07T04:42:29;3.28;;;2.97;;
323;SDS011;149;51.094;17.002;2022-12-07T04:44:57;3.20;;;2.90;;
323;SDS011;149;51.094;17.002;2022-12-07T04:47:24;3.40;;;3.08;;
323;SDS011;149;51.094;17.002;2022-12-07T04:49:53;4.60;;;4.20;;
323;SDS011;149;51.094;17.002;2022-12-07T04:52:21;3.58;;;3.08;;
323;SDS011;149;51.094;17.002;2022-12-07T04:54:53;2.80;;;2.60;;
323;SDS011;149;51.094;17.002;2022-12-07T04:57:23;3.50;;;3.20;;
323;SDS011;149;51.094;17.002;2022-12-07T05:00:06;5.85;;;5.25;;
323;SDS011;149;51.094;17.002;2022-12-07T05:02:36;4.55;;;4.07;;
323;SDS011;149;51.094;17.002;2022-12-07T05:05:07;5.35;;;4.75;;
323;SDS011;149;51.094;17.002;2022-12-07T05:07:34;5.97;;;4.30;;
323;SDS011;149;51.094;17.002;2022-12-07T05:10:01;4.53;;;4.13;;
323;SDS011;149;51.094;17.002;2022-12-07T05:12:33;6.40;;;4.07;;
323;SDS011;149;51.094;17.002;2022-12-07T05:15:00;4.60;;;4.15;;
323;SDS011;149;51.094;17.002;2022-12-07T05:17:27;6.13;;;4.75;;
323;SDS011;149;51.094;17.002;2022-12-07T05:19:54;6.78;;;5.10;;
323;SDS011;149;51.094;17.002;2022-12-07T05:22:21;5.90;;;4.70;;
323;SDS011;149;51.094;17.002;2022-12-07T05:24:50;7.47;;;5.45;;
323;SDS011;149;51.094;17.002;2022-12-07T05:27:17;9.52;;;4.57;;
323;SDS011;149;51.094;17.002;2022-12-07T05:29:44;8.07;;;5.93;;
323;SDS011;149;51.094;17.002;2022-12-07T05:32:11;7.93;;;6.05;;
323;SDS011;149;51.094;17.002;2022-12-07T05:34:38;9.25;;;6.43;;
323;SDS011;149;51.094;17.002;2022-12-07T05:37:05;7.60;;;5.90;;
323;SDS011;149;51.094;17.002;2022-12-07T05:39:32;7.97;;;5.95;;
323;SDS011;149;51.094;17.002;2022-12-07T05:41:59;9.02;;;8.02;;
323;SDS011;149;51.094;17.002;2022-12-07T05:44:42;11.25;;;8.57;;
323;SDS011;149;51.094;17.002;2022-12-07T05:47:11;12.32;;;7.75;;
323;SDS011;149;51.094;17.002;2022-12-07T05:49:40;12.38;;;7.35;;
323;SDS011;149;51.094;17.002;2022-12-07T05:52:07;10.85;;;8.57;;
323;SDS011;149;51.094;17.002;2022-12-07T05:54:35;13.52;;;9.15;;
323;SDS011;149;51.094;17.002;2022-12-07T05:57:02;23.42;;;11.60;;
323;SDS011;149;51.094;17.002;2022-12-07T05:59:29;14.23;;;10.52;;
323;SDS011;149;51.094;17.002;2022-12-07T06:02:00;15.70;;;10.63;;
323;SDS011;149;51.094;17.002;2022-12-07T06:04:30;13.82;;;9.80;;
323;SDS011;149;51.094;17.002;2022-12-07T06:06:59;11.57;;;10.02;;
323;SDS011;149;51.094;17.002;2022-12-07T06:09:28;14.90;;;10.27;;
323;SDS011;149;51.094;17.002;2022-12-07T06:11:56;22.75;;;11.07;;
323;SDS011;149;51.094;17.002;2022-12-07T06:14:44;15.02;;;11.85;;
323;SDS011;149;51.094;17.002;2022-12-07T06:17:11;16.98;;;11.10;;
323;SDS011;149;51.094;17.002;2022-12-07T06:19:39;21.13;;;12.30;;
323;SDS011;149;51.094;17.002;2022-12-07T06:22:11;17.55;;;12.10;;
323;SDS011;149;51.094;17.002;2022-12-07T06:24:51;19.23;;;15.02;;
323;SDS011;149;51.094;17.002;2022-12-07T06:27:20;17.88;;;12.23;;
323;SDS011;149;51.094;17.002;2022-12-07T06:29:47;20.02;;;13.82;;
323;SDS011;149;51.094;17.002;2022-12-07T06:32:16;18.15;;;12.57;;
323;SDS011;149;51.094;17.002;2022-12-07T06:34:44;19.05;;;12.15;;
323;SDS011;149;51.094;17.002;2022-12-07T06:37:12;21.60;;;14.43;;
323;SDS011;149;51.094;17.002;2022-12-07T06:39:48;18.38;;;10.95;;
323;SDS011;149;51.094;17.002;2022-12-07T06:42:15;12.73;;;9.90;;
323;SDS011;149;51.094;17.002;2022-12-07T06:44:42;14.77;;;10.75;;
323;SDS011;149;51.094;17.002;2022-12-07T06:47:10;19.52;;;12.77;;
323;SDS011;149;51.094;17.002;2022-12-07T06:49:57;19.27;;;13.25;;
323;SDS011;149;51.094;17.002;2022-12-07T06:52:25;17.60;;;12.70;;
323;SDS011;149;51.094;17.002;2022-12-07T06:54:52;16.15;;;10.32;;
323;SDS011;149;51.094;17.002;2022-12-07T06:57:19;15.18;;;11.10;;
323;SDS011;149;51.094;17.002;2022-12-07T06:59:46;16.52;;;11.77;;
323;SDS011;149;51.094;17.002;2022-12-07T07:02:13;17.67;;;12.77;;
323;SDS011;149;51.094;17.002;2022-12-07T07:04:40;17.58;;;11.88;;
323;SDS011;149;51.094;17.002;2022-12-07T07:07:07;20.10;;;14.85;;
323;SDS011;149;51.094;17.002;2022-12-07T07:09:36;22.48;;;13.10;;
323;SDS011;149;51.094;17.002;2022-12-07T07:12:03;18.08;;;11.98;;
323;SDS011;149;51.094;17.002;2022-12-07T07:14:30;22.45;;;12.95;;
323;SDS011;149;51.094;17.002;2022-12-07T07:16:57;13.90;;;10.15;;
323;SDS011;149;51.094;17.002;2022-12-07T07:19:24;18.52;;;12.50;;
323;SDS011;149;51.094;17.002;2022-12-07T07:21:51;17.67;;;12.07;;
323;SDS011;149;51.094;17.002;2022-12-07T07:24:18;15.52;;;10.00;;
323;SDS011;149;51.094;17.002;2022-12-07T07:26:45;15.00;;;11.30;;
323;SDS011;149;51.094;17.002;2022-12-07T07:29:12;18.90;;;12.27;;
323;SDS011;149;51.094;17.002;2022-12-07T07:31:46;18.55;;;13.05;;
323;SDS011;149;51.094;17.002;2022-12-07T07:34:13;16.60;;;12.10;;
323;SDS011;149;51.094;17.002;2022-12-07T07:36:40;18.10;;;12.13;;
323;SDS011;149;51.094;17.002;2022-12-07T07:39:07;16.27;;;11.77;;
323;SDS011;149;51.094;17.002;2022-12-07T07:41:34;16.40;;;11.73;;
323;SDS011;149;51.094;17.002;2022-12-07T07:44:02;17.98;;;12.20;;
323;SDS011;149;51.094;17.002;2022-12-07T07:46:31;20.50;;;13.07;;
323;SDS011;149;51.094;17.002;2022-12-07T07:49:00;16.48;;;11.52;;
323;SDS011;149;51.094;17.002;2022-12-07T07:51:27;17.02;;;10.98;;
323;SDS011;149;51.094;17.002;2022-12-07T07:53:55;15.43;;;11.55;;
323;SDS011;149;51.094;17.002;2022-12-07T07:56:23;16.45;;;10.85;;
323;SDS011;149;51.094;17.002;2022-12-07T07:58:53;13.80;;;10.40;;
323;SDS011;149;51.094;17.002;2022-12-07T08:01:21;14.25;;;10.02;;
323;SDS011;149;51.094;17.002;2022-12-07T08:03:49;14.45;;;10.63;;
323;SDS011;149;51.094;17.002;2022-12-07T08:06:16;15.05;;;9.52;;
323;SDS011;149;51.094;17.002;2022-12-07T08:08:43;16.33;;;11.02;;
323;SDS011;149;51.094;17.002;2022-12-07T08:11:10;15.90;;;10.80;;
323;SDS011;149;51.094;17.002;2022-12-07T08:13:38;14.90;;;11.07;;
323;SDS011;149;51.094;17.002;2022-12-07T08:16:06;16.52;;;10.82;;
323;SDS011;149;51.094;17.002;2022-12-07T08:18:38;12.18;;;10.45;;
323;SDS011;149;51.094;17.002;2022-12-07T08:21:06;13.10;;;9.45;;
323;SDS011;149;51.094;17.002;2022-12-07T08:23:38;15.43;;;10.40;;
323;SDS011;149;51.094;17.002;2022-12-07T08:26:10;15.73;;;10.70;;
323;SDS011;149;51.094;17.002;2022-12-07T08:28:39;21.10;;;11.43;;
323;SDS011;149;51.094;17.002;2022-12-07T08:31:08;17.45;;;10.77;;
323;SDS011;149;51.094;17.002;2022-12-07T08:33:37;13.07;;;9.27;;
323;SDS011;149;51.094;17.002;2022-12-07T08:36:09;19.23;;;10.40;;
323;SDS011;149;51.094;17.002;2022-12-07T08:38:38;14.93;;;10.38;;
323;SDS011;149;51.094;17.002;2022-12-07T08:41:22;18.23;;;10.85;;
323;SDS011;149;51.094;17.002;2022-12-07T08:43:52;12.10;;;9.52;;
323;SDS011;149;51.094;17.002;2022-12-07T08:46:26;13.25;;;9.75;;
323;SDS011;149;51.094;17.002;2022-12-07T08:49:11;13.40;;;9.63;;
323;SDS011;149;51.094;17.002;2022-12-07T08:51:42;13.30;;;8.93;;
323;SDS011;149;51.094;17.002;2022-12-07T08:54:11;13.15;;;10.18;;
323;SDS011;149;51.094;17.002;2022-12-07T08:56:43;13.50;;;9.73;;
323;SDS011;149;51.094;17.002;2022-12-07T08:59:12;13.98;;;10.27;;
323;SDS011;149;51.094;17.002;2022-12-07T09:01:42;14.52;;;10.15;;
323;SDS011;149;51.094;17.002;2022-12-07T09:04:11;12.63;;;8.85;;
323;SDS011;149;51.094;17.002;2022-12-07T09:06:38;18.52;;;10.40;;
323;SDS011;149;51.094;17.002;2022-12-07T09:09:06;15.30;;;9.60;;
323;SDS011;149;51.094;17.002;2022-12-07T09:11:35;14.45;;;10.30;;
323;SDS011;149;51.094;17.002;2022-12-07T09:14:02;14.05;;;10.60;;
323;SDS011;149;51.094;17.002;2022-12-07T09:16:30;14.75;;;9.57;;
323;SDS011;149;51.094;17.002;2022-12-07T09:19:03;14.48;;;9.02;;
323;SDS011;149;51.094;17.002;2022-12-07T09:21:32;10.23;;;7.65;;
323;SDS011;149;51.094;17.002;2022-12-07T09:24:03;6.95;;;6.25;;
323;SDS011;149;51.094;17.002;2022-12-07T09:26:30;11.57;;;8.57;;
323;SDS011;149;51.094;17.002;2022-12-07T09:29:04;7.47;;;6.30;;
323;SDS011;149;51.094;17.002;2022-12-07T09:31:37;7.57;;;6.32;;
323;SDS011;149;51.094;17.002;2022-12-07T09:34:04;8.25;;;6.35;;
323;SDS011;149;51.094;17.002;2022-12-07T09:36:34;8.43;;;6.40;;
323;SDS011;149;51.094;17.002;2022-12-07T09:39:04;8.73;;;6.80;;
323;SDS011;149;51.094;17.002;2022-12-07T09:41:32;12.85;;;8.82;;
323;SDS011;149;51.094;17.002;2022-12-07T09:44:33;9.93;;;8.13;;
323;SDS011;149;51.094;17.002;2022-12-07T09:46:54;8.25;;;6.70;;
323;SDS011;149;51.094;17.002;2022-12-07T09:49:23;8.98;;;5.57;;
323;SDS011;149;51.094;17.002;2022-12-07T09:54:46;8.48;;;5.10;;
323;SDS011;149;51.094;17.002;2022-12-07T09:57:16;5.50;;;4.10;;
323;SDS011;149;51.094;17.002;2022-12-07T09:59:44;5.32;;;4.20;;
323;SDS011;149;51.094;17.002;2022-12-07T10:02:21;9.18;;;5.70;;
323;SDS011;149;51.094;17.002;2022-12-07T10:05:06;7.90;;;6.07;;
323;SDS011;149;51.094;17.002;2022-12-07T10:07:47;7.60;;;5.10;;
323;SDS011;149;51.094;17.002;2022-12-07T10:10:23;9.07;;;5.28;;
323;SDS011;149;51.094;17.002;2022-12-07T10:12:57;4.75;;;4.20;;
323;SDS011;149;51.094;17.002;2022-12-07T10:15:40;6.03;;;4.93;;
323;SDS011;149;51.094;17.002;2022-12-07T10:18:19;7.50;;;4.40;;
323;SDS011;149;51.094;17.002;2022-12-07T10:21:01;9.20;;;4.97;;
323;SDS011;149;51.094;17.002;2022-12-07T10:23:41;8.32;;;4.85;;
323;SDS011;149;51.094;17.002;2022-12-07T10:26:37;7.70;;;5.35;;
323;SDS011;149;51.094;17.002;2022-12-07T10:29:29;6.07;;;4.80;;
323;SDS011;149;51.094;17.002;2022-12-07T10:32:06;9.55;;;6.25;;
323;SDS011;149;51.094;17.002;2022-12-07T10:35:19;8.63;;;5.75;;
323;SDS011;149;51.094;17.002;2022-12-07T10:37:52;10.20;;;6.70;;
323;SDS011;149;51.094;17.002;2022-12-07T10:40:34;6.35;;;5.05;;
323;SDS011;149;51.094;17.002;2022-12-07T10:43:06;4.32;;;3.70;;
323;SDS011;149;51.094;17.002;2022-12-07T10:52:03;7.72;;;5.25;;
323;SDS011;149;51.094;17.002;2022-12-07T11:03:53;4.57;;;3.13;;
323;SDS011;149;51.094;17.002;2022-12-07T11:06:47;3.35;;;3.05;;
323;SDS011;149;51.094;17.002;2022-12-07T11:15:21;8.98;;;4.38;;
323;SDS011;149;51.094;17.002;2022-12-07T11:34:33;4.00;;;3.47;;
323;SDS011;149;51.094;17.002;2022-12-07T11:37:25;3.28;;;2.97;;
323;SDS011;149;51.094;17.002;2022-12-07T11:40:24;4.10;;;3.70;;
323;SDS011;149;51.094;17.002;2022-12-07T11:46:19;5.45;;;4.20;;
323;SDS011;149;51.094;17.002;2022-12-07T11:48:49;4.28;;;3.88;;
323;SDS011;149;51.094;17.002;2022-12-07T11:51:32;3.92;;;3.55;;
323;SDS011;149;51.094;17.002;2022-12-07T11:54:03;3.90;;;3.55;;
323;SDS011;149;51.094;17.002;2022-12-07T11:56:38;4.63;;;3.90;;
323;SDS011;149;51.094;17.002;2022-12-07T11:59:13;4.28;;;3.88;;
323;SDS011;149;51.094;17.002;2022-12-07T12:01:51;4.35;;;3.95;;
323;SDS011;149;51.094;17.002;2022-12-07T12:04:23;4.90;;;4.43;;
323;SDS011;149;51.094;17.002;2022-12-07T12:07:11;4.10;;;3.70;;
323;SDS011;149;51.094;17.002;2022-12-07T12:10:24;3.55;;;3.00;;
323;SDS011;149;51.094;17.002;2022-12-07T12:13:10;5.38;;;4.90;;
323;SDS011;149;51.094;17.002;2022-12-07T12:21:54;4.57;;;4.18;;
323;SDS011;149;51.094;17.002;2022-12-07T12:24:34;5.00;;;4.55;;
323;SDS011;149;51.094;17.002;2022-12-07T12:27:07;4.07;;;3.78;;
323;SDS011;149;51.094;17.002;2022-12-07T12:29:40;6.45;;;4.45;;
323;SDS011;149;51.094;17.002;2022-12-07T12:32:13;6.82;;;4.07;;
323;SDS011;149;51.094;17.002;2022-12-07T12:35:17;6.60;;;4.75;;
323;SDS011;149;51.094;17.002;2022-12-07T12:37:47;7.32;;;4.00;;
323;SDS011;149;51.094;17.002;2022-12-07T12:42:46;6.25;;;4.57;;
323;SDS011;149;51.094;17.002;2022-12-07T12:45:22;5.95;;;4.00;;
323;SDS011;149;51.094;17.002;2022-12-07T12:53:02;4.72;;;4.22;;
323;SDS011;149;51.094;17.002;2022-12-07T12:56:02;5.70;;;4.05;;
323;SDS011;149;51.094;17.002;2022-12-07T12:59:17;7.10;;;3.47;;
323;SDS011;149;51.094;17.002;2022-12-07T13:02:14;3.60;;;3.30;;
323;SDS011;149;51.094;17.002;2022-12-07T13:13:28;4.90;;;4.40;;
323;SDS011;149;51.094;17.002;2022-12-07T13:26:20;3.72;;;3.33;;
323;SDS011;149;51.094;17.002;2022-12-07T13:29:18;6.93;;;4.32;;
323;SDS011;149;51.094;17.002;2022-12-07T13:31:54;4.07;;;3.67;;
323;SDS011;149;51.094;17.002;2022-12-07T13:34:36;12.35;;;5.63;;
323;SDS011;149;51.094;17.002;2022-12-07T13:37:14;5.18;;;4.68;;
323;SDS011;149;51.094;17.002;2022-12-07T13:39:54;5.88;;;4.50;;
323;SDS011;149;51.094;17.002;2022-12-07T13:42:26;4.85;;;4.40;;
323;SDS011;149;51.094;17.002;2022-12-07T13:44:58;4.72;;;4.32;;
323;SDS011;149;51.094;17.002;2022-12-07T13:49:57;9.95;;;6.30;;
323;SDS011;149;51.094;17.002;2022-12-07T13:52:25;6.10;;;5.50;;
323;SDS011;149;51.094;17.002;2022-12-07T13:57:50;7.47;;;5.13;;
323;SDS011;149;51.094;17.002;2022-12-07T14:00:21;8.13;;;5.80;;
323;SDS011;149;51.094;17.002;2022-12-07T14:05:29;7.93;;;5.13;;
323;SDS011;149;51.094;17.002;2022-12-07T14:07:59;9.82;;;6.40;;
323;SDS011;149;51.094;17.002;2022-12-07T14:13:00;8.82;;;6.75;;
323;SDS011;149;51.094;17.002;2022-12-07T14:15:29;9.73;;;6.97;;
323;SDS011;149;51.094;17.002;2022-12-07T14:18:01;8.55;;;5.97;;
323;SDS011;149;51.094;17.002;2022-12-07T14:20:39;6.53;;;5.70;;
323;SDS011;149;51.094;17.002;2022-12-07T14:23:21;6.63;;;6.00;;
323;SDS011;149;51.094;17.002;2022-12-07T14:25:54;7.10;;;5.35;;
323;SDS011;149;51.094;17.002;2022-12-07T14:28:39;6.43;;;5.72;;
323;SDS011;149;51.094;17.002;2022-12-07T14:31:29;8.35;;;5.57;;
323;SDS011;149;51.094;17.002;2022-12-07T14:33:59;7.90;;;6.20;;
323;SDS011;149;51.094;17.002;2022-12-07T14:36:28;11.48;;;6.10;;
323;SDS011;149;51.094;17.002;2022-12-07T14:38:55;6.47;;;5.30;;
323;SDS011;149;51.094;17.002;2022-12-07T14:41:26;11.15;;;7.18;;
323;SDS011;149;51.094;17.002;2022-12-07T14:44:12;5.80;;;4.85;;
323;SDS011;149;51.094;17.002;2022-12-07T14:46:51;5.72;;;5.20;;
323;SDS011;149;51.094;17.002;2022-12-07T14:49:38;7.13;;;5.88;;
323;SDS011;149;51.094;17.002;2022-12-07T14:52:06;10.98;;;5.97;;
323;SDS011;149;51.094;17.002;2022-12-07T14:55:21;10.43;;;5.32;;
323;SDS011;149;51.094;17.002;2022-12-07T14:57:52;6.70;;;5.57;;
323;SDS011;149;51.094;17.002;2022-12-07T15:00:20;8.18;;;5.53;;
323;SDS011;149;51.094;17.002;2022-12-07T15:02:49;8.48;;;5.10;;
323;SDS011;149;51.094;17.002;2022-12-07T15:05:16;6.80;;;4.95;;
323;SDS011;149;51.094;17.002;2022-12-07T15:07:45;6.70;;;5.60;;
323;SDS011;149;51.094;17.002;2022-12-07T15:10:23;9.70;;;6.25;;
323;SDS011;149;51.094;17.002;2022-12-07T15:12:59;8.63;;;7.18;;
323;SDS011;149;51.094;17.002;2022-12-07T15:15:47;9.77;;;7.57;;
323;SDS011;149;51.094;17.002;2022-12-07T15:18:20;10.23;;;6.13;;
323;SDS011;149;51.094;17.002;2022-12-07T15:20:49;12.27;;;6.63;;
323;SDS011;149;51.094;17.002;2022-12-07T15:23:17;10.15;;;7.10;;
323;SDS011;149;51.094;17.002;2022-12-07T15:25:45;9.45;;;5.82;;
323;SDS011;149;51.094;17.002;2022-12-07T15:28:14;7.53;;;6.07;;
323;SDS011;149;51.094;17.002;2022-12-07T15:30:41;7.45;;;5.75;;
323;SDS011;149;51.094;17.002;2022-12-07T15:33:10;11.18;;;6.03;;
323;SDS011;149;51.094;17.002;2022-12-07T15:35:42;12.60;;;6.57;;
323;SDS011;149;51.094;17.002;2022-12-07T15:38:10;9.40;;;6.88;;
323;SDS011;149;51.094;17.002;2022-12-07T15:40:40;7.10;;;6.40;;
323;SDS011;149;51.094;17.002;2022-12-07T15:43:10;9.27;;;6.43;;
323;SDS011;149;51.094;17.002;2022-12-07T15:45:57;9.07;;;6.97;;
323;SDS011;149;51.094;17.002;2022-12-07T15:48:25;8.98;;;6.70;;
323;SDS011;149;51.094;17.002;2022-12-07T15:51:00;8.65;;;6.30;;
323;SDS011;149;51.094;17.002;2022-12-07T15:53:32;9.57;;;6.95;;
323;SDS011;149;51.094;17.002;2022-12-07T15:56:00;9.10;;;6.30;;
323;SDS011;149;51.094;17.002;2022-12-07T15:58:27;11.10;;;7.38;;
323;SDS011;149;51.094;17.002;2022-12-07T16:00:54;8.38;;;6.95;;
323;SDS011;149;51.094;17.002;2022-12-07T16:03:21;9.25;;;7.85;;
323;SDS011;149;51.094;17.002;2022-12-07T16:05:51;12.82;;;7.97;;
323;SDS011;149;51.094;17.002;2022-12-07T16:08:19;10.38;;;7.30;;
323;SDS011;149;51.094;17.002;2022-12-07T16:10:47;12.60;;;8.07;;
323;SDS011;149;51.094;17.002;2022-12-07T16:13:14;11.05;;;7.68;;
323;SDS011;149;51.094;17.002;2022-12-07T16:15:41;10.98;;;8.10;;
323;SDS011;149;51.094;17.002;2022-12-07T16:18:09;13.07;;;8.57;;
323;SDS011;149;51.094;17.002;2022-12-07T16:20:36;11.35;;;8.05;;
323;SDS011;149;51.094;17.002;2022-12-07T16:23:03;12.93;;;7.65;;
323;SDS011;149;51.094;17.002;2022-12-07T16:25:30;8.93;;;7.47;;
323;SDS011;149;51.094;17.002;2022-12-07T16:27:59;10.15;;;7.05;;
323;SDS011;149;51.094;17.002;2022-12-07T16:30:30;10.30;;;7.82;;
323;SDS011;149;51.094;17.002;2022-12-07T16:32:57;8.43;;;6.13;;
323;SDS011;149;51.094;17.002;2022-12-07T16:35:28;13.25;;;6.53;;
323;SDS011;149;51.094;17.002;2022-12-07T16:37:55;9.73;;;7.80;;
323;SDS011;149;51.094;17.002;2022-12-07T16:40:22;12.60;;;7.82;;
323;SDS011;149;51.094;17.002;2022-12-07T16:42:49;11.15;;;7.82;;
323;SDS011;149;51.094;17.002;2022-12-07T16:45:17;10.25;;;7.50;;
323;SDS011;149;51.094;17.002;2022-12-07T16:47:46;8.23;;;7.35;;
323;SDS011;149;51.094;17.002;2022-12-07T16:50:14;9.13;;;6.57;;
323;SDS011;149;51.094;17.002;2022-12-07T16:52:41;9.18;;;7.40;;
323;SDS011;149;51.094;17.002;2022-12-07T16:55:08;9.30;;;5.93;;
323;SDS011;149;51.094;17.002;2022-12-07T16:57:36;9.05;;;6.80;;
323;SDS011;149;51.094;17.002;2022-12-07T17:00:04;7.85;;;5.82;;
323;SDS011;149;51.094;17.002;2022-12-07T17:02:32;10.25;;;6.78;;
323;SDS011;149;51.094;17.002;2022-12-07T17:04:59;7.10;;;5.20;;
323;SDS011;149;51.094;17.002;2022-12-07T17:07:27;9.88;;;6.25;;
323;SDS011;149;51.094;17.002;2022-12-07T17:09:59;7.32;;;6.53;;
323;SDS011;149;51.094;17.002;2022-12-07T17:12:26;8.90;;;6.15;;
323;SDS011;149;51.094;17.002;2022-12-07T17:14:53;6.93;;;5.80;;
323;SDS011;149;51.094;17.002;2022-12-07T17:17:56;8.77;;;7.22;;
323;SDS011;149;51.094;17.002;2022-12-07T17:20:25;7.50;;;6.70;;
323;SDS011;149;51.094;17.002;2022-12-07T17:22:53;9.95;;;7.40;;
323;SDS011;149;51.094;17.002;2022-12-07T17:25:23;8.80;;;6.65;;
323;SDS011;149;51.094;17.002;2022-12-07T17:27:51;12.88;;;7.60;;
323;SDS011;149;51.094;17.002;2022-12-07T17:30:19;16.75;;;10.52;;
323;SDS011;149;51.094;17.002;2022-12-07T17:32:46;14.88;;;8.88;;
323;SDS011;149;51.094;17.002;2022-12-07T17:35:13;14.93;;;9.95;;
323;SDS011;149;51.094;17.002;2022-12-07T17:38:07;17.10;;;9.55;;
323;SDS011;149;51.094;17.002;2022-12-07T17:40:34;12.93;;;8.20;;
323;SDS011;149;51.094;17.002;2022-12-07T17:43:02;13.57;;;7.22;;
323;SDS011;149;51.094;17.002;2022-12-07T17:45:29;10.38;;;7.00;;
323;SDS011;149;51.094;17.002;2022-12-07T17:47:57;15.35;;;8.27;;
323;SDS011;149;51.094;17.002;2022-12-07T17:50:24;12.32;;;8.65;;
323;SDS011;149;51.094;17.002;2022-12-07T17:53:11;19.73;;;9.68;;